createdAt,value
2019-01-02T00:01:40.620Z,2.80
2019-01-02T00:04:09.607Z,2.33
2019-01-02T00:06:38.169Z,1.77
2019-01-02T00:09:07.296Z,2.20
2019-01-02T00:11:35.913Z,2.37
2019-01-02T00:14:04.589Z,2.50
2019-01-02T00:16:33.147Z,1.90
2019-01-02T00:19:01.783Z,2.07
2019-01-02T00:21:30.605Z,2.20
2019-01-02T00:23:59.188Z,2.77
2019-01-02T00:26:28.050Z,2.90
2019-01-02T00:28:56.641Z,2.10
2019-01-02T00:31:25.497Z,2.83
2019-01-02T00:33:54.053Z,3.10
2019-01-02T00:36:22.935Z,2.53
2019-01-02T00:38:51.500Z,2.73
2019-01-02T00:41:20.080Z,2.47
2019-01-02T00:43:48.637Z,3.13
2019-01-02T00:46:17.301Z,2.97
2019-01-02T00:48:45.857Z,2.00
2019-01-02T00:51:14.440Z,2.87
2019-01-02T00:53:42.993Z,3.00
2019-01-02T00:56:11.581Z,2.40
2019-01-02T00:58:40.142Z,2.43
2019-01-02T01:01:08.729Z,2.97
2019-01-02T01:03:37.304Z,2.80
2019-01-02T01:06:06.326Z,2.60
2019-01-02T01:08:34.887Z,2.80
2019-01-02T01:11:03.786Z,3.00
2019-01-02T01:13:32.339Z,3.10
2019-01-02T01:16:01.215Z,3.13
2019-01-02T01:18:29.777Z,2.70
2019-01-02T01:20:58.660Z,2.80
2019-01-02T01:23:27.222Z,3.97
2019-01-02T01:25:55.804Z,3.17
2019-01-02T01:28:24.556Z,3.13
2019-01-02T01:30:53.140Z,2.33
2019-01-02T01:33:21.991Z,2.37
2019-01-02T01:35:50.580Z,2.70
2019-01-02T01:38:19.137Z,3.40
2019-01-02T01:40:48.102Z,3.50
2019-01-02T01:43:16.660Z,3.10
2019-01-02T01:45:45.336Z,2.73
2019-01-02T01:48:13.890Z,3.17
2019-01-02T01:50:42.553Z,3.77
2019-01-02T01:53:11.309Z,2.73
2019-01-02T01:55:39.909Z,3.43
2019-01-02T01:58:08.524Z,3.13
2019-01-02T02:00:37.181Z,2.87
2019-01-02T02:03:05.809Z,2.50
2019-01-02T02:05:34.674Z,3.13
2019-01-02T02:08:03.256Z,2.80
2019-01-02T02:10:31.840Z,3.20
2019-01-02T02:13:00.792Z,2.50
2019-01-02T02:15:29.356Z,3.33
2019-01-02T02:17:58.241Z,3.90
2019-01-02T02:20:27.056Z,2.60
2019-01-02T02:22:55.644Z,2.53
2019-01-02T02:25:24.597Z,2.67
2019-01-02T02:27:53.185Z,3.50
2019-01-02T02:30:22.141Z,3.10
2019-01-02T02:32:50.737Z,3.13
2019-01-02T02:35:19.659Z,3.60
2019-01-02T02:37:48.251Z,2.87
2019-01-02T02:40:16.812Z,3.27
2019-01-02T02:42:45.400Z,3.33
2019-01-02T02:45:14.333Z,3.47
2019-01-02T02:47:43.190Z,3.23
2019-01-02T02:50:13.987Z,3.03
2019-01-02T02:52:42.576Z,3.20
2019-01-02T02:55:13.682Z,3.10
2019-01-02T02:57:42.271Z,3.43
2019-01-02T03:00:16.116Z,3.57
2019-01-02T03:02:44.764Z,3.07
2019-01-02T03:05:15.056Z,3.37
2019-01-02T03:07:44.007Z,4.37
2019-01-02T03:10:14.905Z,3.47
2019-01-02T03:12:43.783Z,3.60
2019-01-02T03:15:12.809Z,3.10
2019-01-02T03:17:41.464Z,3.30
2019-01-02T03:20:16.348Z,4.17
2019-01-02T03:22:45.106Z,3.83
2019-01-02T03:25:14.605Z,3.83
2019-01-02T03:27:43.460Z,3.63
2019-01-02T03:30:14.686Z,4.27
2019-01-02T03:32:43.640Z,3.23
2019-01-02T03:35:12.598Z,3.80
2019-01-02T03:37:41.155Z,3.53
2019-01-02T03:40:11.683Z,4.03
2019-01-02T03:42:40.329Z,4.33
2019-01-02T03:45:11.828Z,3.93
2019-01-02T03:47:40.524Z,3.07
2019-01-02T03:50:12.250Z,3.90
2019-01-02T03:52:40.881Z,3.70
2019-01-02T03:55:10.300Z,3.50
2019-01-02T03:57:38.930Z,2.97
2019-01-02T04:00:13.561Z,3.23
2019-01-02T04:02:42.190Z,3.07
2019-01-02T04:05:16.236Z,3.40
2019-01-02T04:07:48.037Z,3.47
2019-01-02T04:10:16.765Z,3.67
2019-01-02T04:12:45.308Z,4.13
2019-01-02T04:15:13.965Z,3.60
2019-01-02T04:17:42.521Z,4.43
2019-01-02T04:20:11.108Z,3.27
2019-01-02T04:22:39.665Z,4.00
2019-01-02T04:25:08.989Z,3.50
2019-01-02T04:27:37.544Z,3.87
2019-01-02T04:30:14.079Z,3.83
2019-01-02T04:32:42.632Z,3.10
2019-01-02T04:35:11.189Z,3.90
2019-01-02T04:37:39.839Z,3.83
2019-01-02T04:40:10.845Z,3.80
2019-01-02T04:42:39.437Z,3.67
2019-01-02T04:45:10.131Z,3.70
2019-01-02T04:47:38.780Z,4.10
2019-01-02T04:50:09.982Z,4.50
2019-01-02T04:52:38.564Z,3.90
2019-01-02T04:55:07.199Z,3.77
2019-01-02T04:57:35.860Z,4.40
2019-01-02T05:00:07.481Z,4.00
2019-01-02T05:02:36.079Z,3.77
2019-01-02T05:05:05.468Z,3.80
2019-01-02T05:07:34.058Z,4.07
2019-01-02T05:10:02.605Z,4.37
2019-01-02T05:12:31.193Z,3.73
2019-01-02T05:14:59.747Z,3.57
2019-01-02T05:17:28.338Z,3.60
2019-01-02T05:19:56.885Z,3.30
2019-01-02T05:22:25.474Z,3.63
2019-01-02T05:25:01.374Z,3.23
2019-01-02T05:27:29.658Z,2.97
2019-01-02T05:29:58.216Z,3.37
2019-01-02T05:32:26.813Z,4.30
2019-01-02T05:34:55.373Z,3.83
2019-01-02T05:37:23.968Z,3.20
2019-01-02T05:39:52.524Z,4.23
2019-01-02T05:42:21.110Z,6.10
2019-01-02T05:44:49.660Z,15.80
2019-01-02T05:47:18.255Z,20.73
2019-01-02T05:49:46.813Z,21.93
2019-01-02T05:52:15.401Z,10.97
2019-01-02T05:54:43.966Z,12.70
2019-01-02T05:57:12.554Z,14.07
2019-01-02T05:59:41.116Z,15.93
2019-01-02T06:02:09.710Z,12.40
2019-01-02T06:04:38.260Z,10.67
2019-01-02T06:07:06.849Z,9.80
2019-01-02T06:09:35.410Z,8.77
2019-01-02T06:12:03.997Z,8.93
2019-01-02T06:14:32.560Z,7.17
2019-01-02T06:17:01.155Z,5.67
2019-01-02T06:19:29.707Z,5.27
2019-01-02T06:21:58.276Z,5.43
2019-01-02T06:24:26.858Z,5.77
2019-01-02T06:26:55.422Z,4.80
2019-01-02T06:29:24.004Z,4.70
2019-01-02T06:31:52.560Z,4.57
2019-01-02T06:34:21.148Z,5.30
2019-01-02T06:36:49.711Z,4.57
2019-01-02T06:39:18.301Z,5.37
2019-01-02T06:41:46.859Z,4.77
2019-01-02T06:44:15.440Z,4.37
2019-01-02T06:46:43.997Z,4.63
2019-01-02T06:49:12.585Z,4.77
2019-01-02T06:51:41.139Z,6.23
2019-01-02T06:54:09.733Z,9.13
2019-01-02T06:56:38.284Z,7.00
2019-01-02T06:59:06.864Z,6.97
2019-01-02T07:01:35.421Z,6.07
2019-01-02T07:04:04.081Z,7.87
2019-01-02T07:06:32.632Z,5.80
2019-01-02T07:09:01.220Z,4.17
2019-01-02T07:11:29.782Z,4.13
2019-01-02T07:13:58.373Z,4.43
2019-01-02T07:16:26.929Z,3.73
2019-01-02T07:18:55.512Z,3.90
2019-01-02T07:21:24.068Z,3.33
2019-01-02T07:23:52.732Z,3.40
2019-01-02T07:26:21.291Z,3.80
2019-01-02T07:28:49.849Z,3.73
2019-01-02T07:31:18.436Z,3.37
2019-01-02T07:33:50.061Z,3.53
2019-01-02T07:36:42.272Z,3.30
2019-01-02T07:39:19.671Z,4.30
2019-01-02T07:41:57.212Z,3.53
2019-01-02T07:44:37.429Z,3.90
2019-01-02T07:47:28.182Z,4.47
2019-01-02T07:50:19.251Z,3.33
2019-01-02T07:53:11.501Z,3.60
2019-01-02T07:55:59.547Z,4.37
2019-01-02T07:58:55.101Z,4.17
2019-01-02T08:01:35.570Z,4.27
2019-01-02T08:04:33.492Z,4.33
2019-01-02T08:07:21.429Z,3.83
2019-01-02T08:10:01.758Z,4.20
2019-01-02T08:12:33.384Z,4.47
2019-01-02T08:15:21.026Z,5.00
2019-01-02T08:17:55.252Z,7.27
2019-01-02T08:20:32.788Z,6.60
2019-01-02T08:23:25.424Z,6.50
2019-01-02T08:26:19.088Z,5.60
2019-01-02T08:29:02.103Z,4.27
2019-01-02T08:31:42.319Z,4.33
2019-01-02T08:34:28.909Z,4.10
2019-01-02T08:37:21.452Z,4.90
2019-01-02T08:40:04.732Z,4.70
2019-01-02T08:42:45.429Z,5.03
2019-01-02T08:45:40.833Z,4.73
2019-01-02T08:48:15.435Z,5.33
2019-01-02T08:51:13.884Z,4.30
2019-01-02T08:53:56.875Z,3.93
2019-01-02T08:56:56.548Z,3.63
2019-01-02T08:59:39.862Z,4.13
2019-01-02T09:02:27.897Z,4.87
2019-01-02T09:05:20.581Z,4.93
2019-01-02T09:08:03.793Z,4.73
2019-01-02T09:10:59.333Z,5.90
2019-01-02T09:13:49.970Z,4.97
2019-01-02T09:16:40.640Z,4.93
2019-01-02T09:19:24.216Z,4.77
2019-01-02T09:21:55.886Z,4.03
2019-01-02T09:24:33.172Z,4.27
2019-01-02T09:27:33.069Z,4.13
2019-01-02T09:30:04.699Z,3.93
2019-01-02T09:32:48.089Z,3.90
2019-01-02T09:35:47.870Z,3.83
2019-01-02T09:38:34.442Z,4.90
2019-01-02T09:41:11.847Z,4.17
2019-01-02T09:43:43.520Z,4.53
2019-01-02T09:46:15.142Z,4.07
2019-01-02T09:48:52.503Z,5.17
2019-01-02T09:51:45.129Z,5.13
2019-01-02T09:54:33.127Z,4.80
2019-01-02T09:57:20.791Z,4.70
2019-01-02T09:59:58.124Z,3.67
2019-01-02T10:02:41.828Z,4.33
2019-01-02T10:05:28.076Z,4.37
2019-01-02T10:08:05.316Z,5.07
2019-01-02T10:10:45.338Z,3.40
2019-01-02T10:13:25.598Z,4.60
2019-01-02T10:16:22.582Z,4.40
2019-01-02T10:19:03.230Z,5.00
2019-01-02T10:21:43.920Z,4.60
2019-01-02T10:24:18.476Z,4.33
2019-01-02T10:27:01.741Z,4.00
2019-01-02T10:29:49.601Z,4.43
2019-01-02T10:32:33.221Z,5.40
2019-01-02T10:35:21.172Z,5.13
2019-01-02T10:37:52.832Z,5.37
2019-01-02T10:40:30.167Z,4.23
2019-01-02T10:43:01.837Z,5.20
2019-01-02T10:45:38.839Z,4.53
2019-01-02T10:48:27.766Z,3.67
2019-01-02T10:51:07.959Z,4.93
2019-01-02T10:53:45.407Z,3.87
2019-01-02T10:56:19.632Z,5.03
2019-01-02T10:59:18.128Z,4.53
2019-01-02T11:02:08.856Z,4.73
2019-01-02T11:04:46.023Z,4.13
2019-01-02T11:07:29.212Z,3.87
2019-01-02T11:10:03.670Z,4.13
2019-01-02T11:12:44.293Z,3.93
2019-01-02T11:15:50.280Z,4.30
2019-01-02T11:18:38.149Z,4.53
2019-01-02T11:21:35.164Z,4.73
2019-01-02T11:24:33.651Z,3.40
2019-01-02T11:27:39.822Z,3.53
2019-01-02T11:30:42.994Z,5.00
2019-01-02T11:33:29.255Z,3.83
2019-01-02T11:36:01.755Z,3.77
2019-01-02T11:38:36.382Z,4.97
2019-01-02T11:41:10.928Z,4.30
2019-01-02T11:44:07.833Z,4.20
2019-01-02T11:46:36.390Z,5.00
2019-01-02T11:49:05.048Z,3.50
2019-01-02T11:51:33.608Z,4.40
2019-01-02T11:54:02.213Z,4.30
2019-01-02T11:56:30.836Z,4.53
2019-01-02T11:58:59.429Z,3.57
2019-01-02T12:01:27.985Z,4.07
2019-01-02T12:03:56.568Z,4.70
2019-01-02T12:06:25.128Z,3.60
2019-01-02T12:08:53.718Z,3.63
2019-01-02T12:11:22.339Z,3.40
2019-01-02T12:13:50.932Z,3.60
2019-01-02T12:16:19.498Z,4.47
2019-01-02T12:18:48.049Z,3.57
2019-01-02T12:21:16.643Z,4.93
2019-01-02T12:23:45.220Z,4.87
2019-01-02T12:26:13.814Z,4.90
2019-01-02T12:28:42.370Z,4.40
2019-01-02T12:31:11.024Z,4.20
2019-01-02T12:33:39.584Z,4.43
2019-01-02T12:36:08.213Z,3.73
2019-01-02T12:38:36.739Z,3.70
2019-01-02T12:41:05.319Z,4.07
2019-01-02T12:43:33.880Z,4.77
2019-01-02T12:46:02.533Z,4.80
2019-01-02T12:48:31.094Z,4.20
2019-01-02T12:50:59.680Z,4.03
2019-01-02T12:53:28.244Z,4.07
2019-01-02T12:55:56.904Z,4.10
2019-01-02T12:58:25.467Z,4.07
2019-01-02T13:00:56.760Z,3.93
2019-01-02T13:03:28.405Z,4.40
2019-01-02T13:06:18.179Z,4.57
2019-01-02T13:09:01.353Z,4.17
2019-01-02T13:11:53.646Z,3.63
2019-01-02T13:14:30.800Z,4.40
2019-01-02T13:17:20.078Z,3.30
2019-01-02T13:20:03.031Z,4.67
2019-01-02T13:22:52.449Z,3.77
2019-01-02T13:25:24.076Z,3.70
2019-01-02T13:27:55.744Z,3.20
2019-01-02T13:30:39.374Z,4.13
2019-01-02T13:33:13.520Z,3.03
2019-01-02T13:36:03.092Z,3.30
2019-01-02T13:38:34.716Z,3.83
2019-01-02T13:41:09.122Z,3.50
2019-01-02T13:43:43.452Z,3.50
2019-01-02T13:46:20.884Z,3.73
2019-01-02T13:49:27.881Z,3.37
2019-01-02T13:51:56.481Z,3.90
2019-01-02T13:54:25.036Z,3.57
2019-01-02T13:56:53.619Z,3.33
2019-01-02T13:59:22.179Z,3.50
2019-01-02T14:01:50.770Z,3.57
2019-01-02T14:04:19.318Z,4.37
2019-01-02T14:06:47.896Z,2.87
2019-01-02T14:09:16.520Z,4.53
2019-01-02T14:11:45.111Z,3.73
2019-01-02T14:14:13.678Z,3.77
2019-01-02T14:16:42.260Z,3.87
2019-01-02T14:19:10.820Z,3.60
2019-01-02T14:21:39.412Z,3.47
2019-01-02T14:24:07.973Z,3.93
2019-01-02T14:26:36.536Z,4.00
2019-01-02T14:29:05.130Z,3.87
2019-01-02T14:31:38.648Z,3.10
2019-01-02T14:34:03.992Z,3.53
2019-01-02T14:36:32.542Z,3.60
2019-01-02T14:39:01.125Z,3.40
2019-01-02T14:41:29.681Z,3.80
2019-01-02T14:43:58.277Z,4.33
2019-01-02T14:46:26.841Z,4.13
2019-01-02T14:48:55.416Z,4.87
2019-01-02T14:51:23.982Z,5.17
2019-01-02T14:53:52.567Z,4.60
2019-01-02T14:56:21.123Z,5.43
2019-01-02T14:58:49.708Z,4.57
2019-01-02T15:01:18.261Z,3.57
2019-01-02T15:03:46.850Z,3.50
2019-01-02T15:06:15.400Z,2.90
2019-01-02T15:08:43.984Z,2.90
2019-01-02T15:11:12.540Z,3.87
2019-01-02T15:13:41.132Z,4.03
2019-01-02T15:16:09.706Z,4.33
2019-01-02T15:18:38.284Z,4.63
2019-01-02T15:21:06.845Z,3.47
2019-01-02T15:23:35.447Z,3.83
2019-01-02T15:26:04.068Z,3.60
2019-01-02T15:28:32.652Z,3.20
2019-01-02T15:31:01.209Z,3.50
2019-01-02T15:33:29.792Z,3.80
2019-01-02T15:35:58.346Z,3.93
2019-01-02T15:38:26.943Z,4.10
2019-01-02T15:40:55.501Z,3.67
2019-01-02T15:43:24.091Z,3.43
2019-01-02T15:45:52.647Z,3.70
2019-01-02T15:48:21.206Z,3.87
2019-01-02T15:50:49.865Z,3.60
2019-01-02T15:53:18.428Z,3.50
2019-01-02T15:55:47.018Z,3.70
2019-01-02T15:58:15.572Z,4.57
2019-01-02T16:00:44.224Z,3.30
2019-01-02T16:03:12.783Z,12.27
2019-01-02T16:05:41.376Z,4.67
2019-01-02T16:08:09.937Z,4.77
2019-01-02T16:10:38.521Z,6.03
2019-01-02T16:13:07.084Z,4.70
2019-01-02T16:15:35.664Z,5.07
2019-01-02T16:18:04.220Z,4.37
2019-01-02T16:20:32.814Z,3.77
2019-01-02T16:23:01.436Z,5.40
2019-01-02T16:25:30.025Z,4.37
2019-01-02T16:27:58.584Z,3.73
2019-01-02T16:30:27.173Z,6.87
2019-01-02T16:32:55.731Z,6.67
2019-01-02T16:35:24.316Z,6.73
2019-01-02T16:37:52.871Z,5.27
2019-01-02T16:40:21.459Z,7.27
2019-01-02T16:42:50.013Z,5.87
2019-01-02T16:45:18.596Z,8.50
2019-01-02T16:47:47.153Z,6.70
2019-01-02T16:50:15.740Z,6.33
2019-01-02T16:52:44.292Z,6.57
2019-01-02T16:55:12.881Z,7.00
2019-01-02T16:57:41.438Z,6.07
2019-01-02T17:00:12.737Z,4.73
2019-01-02T17:02:41.294Z,5.47
2019-01-02T17:05:09.927Z,5.83
2019-01-02T17:07:38.509Z,5.57
2019-01-02T17:10:10.116Z,6.10
2019-01-02T17:12:38.697Z,5.27
2019-01-02T17:15:08.093Z,6.07
2019-01-02T17:17:36.681Z,6.10
2019-01-02T17:20:07.774Z,5.77
2019-01-02T17:22:36.372Z,5.43
2019-01-02T17:25:06.878Z,5.83
2019-01-02T17:27:35.507Z,6.00
2019-01-02T17:30:05.303Z,6.60
2019-01-02T17:32:33.892Z,5.87
2019-01-02T17:35:02.524Z,6.13
2019-01-02T17:37:31.114Z,7.20
2019-01-02T17:39:59.696Z,6.93
2019-01-02T17:42:28.294Z,6.67
2019-01-02T17:44:56.840Z,7.60
2019-01-02T17:47:25.434Z,5.93
2019-01-02T17:49:53.993Z,5.73
2019-01-02T17:52:22.581Z,5.80
2019-01-02T17:54:51.150Z,6.05
2019-01-02T17:57:19.818Z,5.40
2019-01-02T17:59:48.367Z,6.00
2019-01-02T18:02:16.954Z,7.20
2019-01-02T18:04:45.517Z,6.10
2019-01-02T18:07:14.113Z,6.45
2019-01-02T18:09:42.676Z,7.90
2019-01-02T18:12:11.285Z,7.20
2019-01-02T18:14:39.840Z,15.75
2019-01-02T18:17:08.433Z,29.67
2019-01-02T18:19:37.076Z,36.77
2019-01-02T18:22:05.742Z,31.10
2019-01-02T18:24:34.309Z,30.23
2019-01-02T18:27:02.910Z,24.20
2019-01-02T18:29:31.474Z,17.15
2019-01-02T18:32:00.066Z,13.88
2019-01-02T18:34:28.658Z,12.00
2019-01-02T18:36:57.229Z,9.78
2019-01-02T18:39:25.826Z,11.48
2019-01-02T18:41:54.402Z,21.03
2019-01-02T18:44:22.992Z,11.60
2019-01-02T18:46:51.559Z,13.90
2019-01-02T18:49:20.157Z,10.00
2019-01-02T18:51:48.712Z,8.55
2019-01-02T18:54:17.305Z,9.08
2019-01-02T18:56:45.870Z,7.75
2019-01-02T18:59:14.456Z,8.90
2019-01-02T19:01:43.021Z,9.60
2019-01-02T19:04:11.657Z,11.05
2019-01-02T19:06:40.226Z,11.33
2019-01-02T19:09:08.974Z,10.78
2019-01-02T19:11:38.753Z,12.20
2019-01-02T19:14:07.329Z,12.55
2019-01-02T19:16:35.964Z,16.45
2019-01-02T19:19:04.577Z,18.10
2019-01-02T19:21:33.144Z,17.10
2019-01-02T19:24:01.736Z,15.60
2019-01-02T19:26:30.301Z,14.47
2019-01-02T19:28:58.912Z,15.25
2019-01-02T19:31:27.480Z,11.88
2019-01-02T19:33:56.069Z,9.55
2019-01-02T19:36:24.645Z,11.50
2019-01-02T19:38:53.484Z,10.78
2019-01-02T19:41:22.045Z,13.28
2019-01-02T19:43:50.969Z,10.93
2019-01-02T19:46:19.551Z,7.80
2019-01-02T19:48:48.136Z,9.20
2019-01-02T19:51:16.704Z,8.85
2019-01-02T19:53:45.304Z,7.78
2019-01-02T19:56:13.860Z,6.62
2019-01-02T19:58:42.428Z,7.08
2019-01-02T20:01:11.027Z,7.12
2019-01-02T20:03:39.576Z,7.35
2019-01-02T20:06:08.166Z,7.75
2019-01-02T20:08:36.724Z,7.85
2019-01-02T20:11:05.314Z,7.08
2019-01-02T20:13:33.867Z,6.70
2019-01-02T20:16:02.459Z,6.25
2019-01-02T20:18:31.021Z,6.35
2019-01-02T20:20:59.672Z,7.00
2019-01-02T20:23:28.228Z,7.30
2019-01-02T20:25:56.813Z,6.53
2019-01-02T20:28:25.377Z,6.60
2019-01-02T20:30:54.139Z,6.37
2019-01-02T20:33:22.696Z,6.97
2019-01-02T20:35:51.276Z,7.15
2019-01-02T20:38:19.836Z,7.10
2019-01-02T20:40:48.452Z,6.87
2019-01-02T20:43:16.976Z,8.03
2019-01-02T20:45:45.577Z,6.95
2019-01-02T20:48:14.154Z,6.67
2019-01-02T20:50:42.713Z,7.20
2019-01-02T20:53:11.279Z,9.00
2019-01-02T20:55:39.860Z,7.05
2019-01-02T20:58:08.420Z,7.92
2019-01-02T21:00:37.010Z,7.70
2019-01-02T21:03:05.567Z,7.17
2019-01-02T21:05:34.163Z,9.03
2019-01-02T21:08:02.718Z,7.80
2019-01-02T21:10:31.305Z,7.90
2019-01-02T21:12:59.928Z,7.40
2019-01-02T21:15:28.564Z,7.83
2019-01-02T21:17:57.102Z,7.92
2019-01-02T21:20:25.793Z,9.60
2019-01-02T21:22:54.351Z,8.28
2019-01-02T21:25:22.940Z,8.80
2019-01-02T21:27:51.508Z,16.37
2019-01-02T21:30:20.060Z,12.35
2019-01-02T21:32:48.724Z,9.55
2019-01-02T21:35:17.275Z,9.23
2019-01-02T21:37:45.860Z,8.70
2019-01-02T21:40:14.408Z,8.38
2019-01-02T21:42:43.004Z,6.87
2019-01-02T21:45:11.637Z,6.67
2019-01-02T21:47:40.225Z,7.40
2019-01-02T21:50:09.217Z,7.50
2019-01-02T21:52:37.804Z,6.87
2019-01-02T21:55:07.306Z,7.37
2019-01-02T21:57:35.888Z,6.95
2019-01-02T22:00:08.359Z,7.17
2019-01-02T22:02:40.322Z,6.95
2019-01-02T22:05:07.216Z,7.40
2019-01-02T22:07:35.798Z,7.97
2019-01-02T22:10:06.587Z,7.08
2019-01-02T22:12:35.235Z,7.33
2019-01-02T22:15:04.224Z,7.35
2019-01-02T22:17:32.824Z,11.33
2019-01-02T22:20:01.384Z,13.72
2019-01-02T22:22:29.974Z,14.95
2019-01-02T22:24:58.536Z,13.13
2019-01-02T22:27:27.128Z,13.18
2019-01-02T22:29:55.756Z,12.45
2019-01-02T22:32:24.349Z,11.85
2019-01-02T22:34:52.905Z,8.33
2019-01-02T22:37:21.485Z,7.28
2019-01-02T22:39:50.044Z,6.83
2019-01-02T22:42:18.637Z,6.50
2019-01-02T22:44:47.190Z,6.50
2019-01-02T22:47:15.785Z,7.05
2019-01-02T22:49:44.337Z,5.85
2019-01-02T22:52:12.912Z,5.95
2019-01-02T22:54:41.482Z,6.47
2019-01-02T22:57:10.020Z,5.95
2019-01-02T22:59:38.613Z,6.53
2019-01-02T23:02:08.778Z,5.58
2019-01-02T23:04:54.777Z,6.65
2019-01-02T23:07:40.824Z,6.47
2019-01-02T23:10:11.017Z,7.12
2019-01-02T23:12:57.464Z,6.53
2019-01-02T23:15:30.615Z,5.25
2019-01-02T23:18:06.804Z,5.10
2019-01-02T23:20:37.009Z,5.87
2019-01-02T23:23:16.183Z,5.65
2019-01-02T23:25:46.380Z,6.05
2019-01-02T23:28:16.610Z,7.33
2019-01-02T23:30:49.755Z,11.93
2019-01-02T23:33:38.045Z,7.67
2019-01-02T23:36:10.796Z,6.65
2019-01-02T23:38:56.984Z,5.72
2019-01-02T23:41:43.169Z,6.00
2019-01-02T23:44:19.093Z,6.30
2019-01-02T23:46:49.289Z,7.28
2019-01-02T23:49:35.941Z,7.72
2019-01-02T23:52:06.201Z,7.00
2019-01-02T23:54:42.423Z,6.85
2019-01-02T23:57:12.688Z,6.10
2019-01-02T23:59:48.980Z,5.47
